gordon.dewis.ca - Random musings from Gordon

Subscribe

Wednesday’s forecast blows (literally)

December 08, 2009 @ 16:07 By: gordon Category: Weather

TAF CYOW 082038Z 0821/0918 25006KT P6SM FEW030
BECMG 0821/0823 VRB03KT
FM090300 07008KT P6SM BKN100
BECMG 0909/0911 09015KT
FM091100 08015G30KT 2SM -SN OVC012 TEMPO 0911/0914 6SM -SN OVC030
FM091400 09020G30KT 1/4SM +SN BLSN VV001 TEMPO 0914/0918 1SM -SN
BLSN OVC008
RMK NXT FCST BY 090000Z=


Looks like it’s going to be windy (30 knots or 55 km/h) and snowy tomorrow, starting about the same time everyone’s going to be driving to work. Whee.

Leave a Reply

*